ORM weather

Sywell Aerodrome
Northampton, England, United Kingdom

Public forecast

Using degrees Celsius for public forecast. Weather courtesy of forecast.io.

METAR (pilot weather report)

Report is more than 6 hours old.

Closest report is Cranfield Airport, 15.4 nm (28.6 km) SSE. Retrieved 2019/04/25 16:50 UTC (9 hours ago):

EGTC 251650Z 20017KT 9999 SCT048 15/05 Q1000

TAF (pilot weather forecast)

Forecast is more than 12 hours old.

Closest forecast is Coventry Airport, 25.5 nm (47.2 km) W. Retrieved 2011/10/05 06:39 UTC (8 years ago):

TAF TAF EGBE 050635Z 0506/0518 22011KT 9999 SCT020 BECMG 0506/0509 23020G30KT PROB30 TEMPO 0516/0518 7000 RA BKN012